sensor_id;sensor_type;location;lat;lon;timestamp;P1;durP1;ratioP1;P2;durP2;ratioP2
62554;SDS011;48610;52.144;8.624;2022-12-07T00:01:46;25.58;;;14.20;;
62554;SDS011;48610;52.144;8.624;2022-12-07T00:04:48;27.83;;;15.38;;
62554;SDS011;48610;52.144;8.624;2022-12-07T00:07:49;30.88;;;15.80;;
62554;SDS011;48610;52.144;8.624;2022-12-07T00:10:49;30.70;;;16.98;;
62554;SDS011;48610;52.144;8.624;2022-12-07T00:13:53;36.78;;;17.65;;
62554;SDS011;48610;52.144;8.624;2022-12-07T00:16:55;36.17;;;17.73;;
62554;SDS011;48610;52.144;8.624;2022-12-07T00:19:56;40.92;;;18.70;;
62554;SDS011;48610;52.144;8.624;2022-12-07T00:22:56;40.72;;;19.35;;
62554;SDS011;48610;52.144;8.624;2022-12-07T00:26:02;40.30;;;20.38;;
62554;SDS011;48610;52.144;8.624;2022-12-07T00:29:10;40.30;;;20.55;;
62554;SDS011;48610;52.144;8.624;2022-12-07T00:32:15;44.70;;;20.27;;
62554;SDS011;48610;52.144;8.624;2022-12-07T00:35:15;51.33;;;22.00;;
62554;SDS011;48610;52.144;8.624;2022-12-07T00:38:16;40.65;;;19.38;;
62554;SDS011;48610;52.144;8.624;2022-12-07T00:41:20;40.22;;;20.45;;
62554;SDS011;48610;52.144;8.624;2022-12-07T00:44:22;46.63;;;21.90;;
62554;SDS011;48610;52.144;8.624;2022-12-07T00:47:23;41.90;;;21.48;;
62554;SDS011;48610;52.144;8.624;2022-12-07T00:50:23;45.85;;;21.25;;
62554;SDS011;48610;52.144;8.624;2022-12-07T00:53:24;51.30;;;24.35;;
62554;SDS011;48610;52.144;8.624;2022-12-07T00:56:26;46.40;;;21.60;;
62554;SDS011;48610;52.144;8.624;2022-12-07T00:59:28;41.00;;;19.85;;
62554;SDS011;48610;52.144;8.624;2022-12-07T01:02:28;56.28;;;24.08;;
62554;SDS011;48610;52.144;8.624;2022-12-07T01:05:29;50.28;;;24.65;;
62554;SDS011;48610;52.144;8.624;2022-12-07T01:08:29;37.65;;;17.38;;
62554;SDS011;48610;52.144;8.624;2022-12-07T01:11:30;54.78;;;25.20;;
62554;SDS011;48610;52.144;8.624;2022-12-07T01:14:31;51.60;;;23.80;;
62554;SDS011;48610;52.144;8.624;2022-12-07T01:17:31;55.03;;;23.88;;
62554;SDS011;48610;52.144;8.624;2022-12-07T01:20:32;68.50;;;23.45;;
62554;SDS011;48610;52.144;8.624;2022-12-07T01:23:33;64.05;;;26.95;;
62554;SDS011;48610;52.144;8.624;2022-12-07T01:26:35;64.47;;;27.33;;
62554;SDS011;48610;52.144;8.624;2022-12-07T01:29:36;45.38;;;21.88;;
62554;SDS011;48610;52.144;8.624;2022-12-07T01:32:36;55.88;;;23.30;;
62554;SDS011;48610;52.144;8.624;2022-12-07T01:35:37;53.85;;;21.30;;
62554;SDS011;48610;52.144;8.624;2022-12-07T01:38:37;44.92;;;22.27;;
62554;SDS011;48610;52.144;8.624;2022-12-07T01:41:39;45.97;;;21.42;;
62554;SDS011;48610;52.144;8.624;2022-12-07T01:48:32;44.45;;;18.98;;
62554;SDS011;48610;52.144;8.624;2022-12-07T01:51:37;40.85;;;19.33;;
62554;SDS011;48610;52.144;8.624;2022-12-07T01:54:41;46.95;;;19.40;;
62554;SDS011;48610;52.144;8.624;2022-12-07T01:57:45;32.85;;;14.27;;
62554;SDS011;48610;52.144;8.624;2022-12-07T02:00:48;43.92;;;17.40;;
62554;SDS011;48610;52.144;8.624;2022-12-07T02:03:49;32.20;;;15.25;;
62554;SDS011;48610;52.144;8.624;2022-12-07T02:06:50;38.55;;;16.13;;
62554;SDS011;48610;52.144;8.624;2022-12-07T02:09:51;31.90;;;15.75;;
62554;SDS011;48610;52.144;8.624;2022-12-07T02:13:11;37.58;;;16.83;;
62554;SDS011;48610;52.144;8.624;2022-12-07T02:22:51;30.85;;;14.07;;
62554;SDS011;48610;52.144;8.624;2022-12-07T02:26:02;31.42;;;14.45;;
62554;SDS011;48610;52.144;8.624;2022-12-07T02:32:41;22.27;;;10.35;;
62554;SDS011;48610;52.144;8.624;2022-12-07T02:35:47;27.88;;;11.15;;
62554;SDS011;48610;52.144;8.624;2022-12-07T02:38:58;29.38;;;12.35;;
62554;SDS011;48610;52.144;8.624;2022-12-07T02:42:07;32.30;;;13.27;;
62554;SDS011;48610;52.144;8.624;2022-12-07T02:45:15;27.75;;;13.40;;
62554;SDS011;48610;52.144;8.624;2022-12-07T02:48:19;31.65;;;12.35;;
62554;SDS011;48610;52.144;8.624;2022-12-07T02:51:21;33.83;;;13.05;;
62554;SDS011;48610;52.144;8.624;2022-12-07T02:54:22;33.05;;;11.80;;
62554;SDS011;48610;52.144;8.624;2022-12-07T03:00:46;23.40;;;10.45;;
62554;SDS011;48610;52.144;8.624;2022-12-07T03:10:58;22.70;;;12.07;;
62554;SDS011;48610;52.144;8.624;2022-12-07T03:14:05;25.45;;;10.93;;
62554;SDS011;48610;52.144;8.624;2022-12-07T03:17:16;29.15;;;12.05;;
62554;SDS011;48610;52.144;8.624;2022-12-07T03:20:22;26.35;;;10.15;;
62554;SDS011;48610;52.144;8.624;2022-12-07T03:23:25;23.48;;;12.32;;
62554;SDS011;48610;52.144;8.624;2022-12-07T03:26:36;28.67;;;12.25;;
62554;SDS011;48610;52.144;8.624;2022-12-07T03:29:43;33.45;;;13.30;;
62554;SDS011;48610;52.144;8.624;2022-12-07T03:36:12;30.35;;;12.23;;
62554;SDS011;48610;52.144;8.624;2022-12-07T03:39:25;21.50;;;11.23;;
62554;SDS011;48610;52.144;8.624;2022-12-07T03:42:46;27.73;;;10.65;;
62554;SDS011;48610;52.144;8.624;2022-12-07T03:45:57;19.73;;;9.45;;
62554;SDS011;48610;52.144;8.624;2022-12-07T03:55:25;16.48;;;8.68;;
62554;SDS011;48610;52.144;8.624;2022-12-07T03:58:31;23.33;;;9.23;;
62554;SDS011;48610;52.144;8.624;2022-12-07T04:01:34;16.48;;;8.40;;
62554;SDS011;48610;52.144;8.624;2022-12-07T04:04:34;16.08;;;8.75;;
62554;SDS011;48610;52.144;8.624;2022-12-07T04:07:35;21.30;;;8.52;;
62554;SDS011;48610;52.144;8.624;2022-12-07T04:10:36;17.63;;;8.25;;
62554;SDS011;48610;52.144;8.624;2022-12-07T04:13:36;15.80;;;8.02;;
62554;SDS011;48610;52.144;8.624;2022-12-07T04:16:57;18.30;;;7.85;;
62554;SDS011;48610;52.144;8.624;2022-12-07T04:19:59;26.67;;;8.35;;
62554;SDS011;48610;52.144;8.624;2022-12-07T04:22:59;19.67;;;7.90;;
62554;SDS011;48610;52.144;8.624;2022-12-07T04:26:00;18.67;;;7.57;;
62554;SDS011;48610;52.144;8.624;2022-12-07T04:29:00;23.13;;;7.72;;
62554;SDS011;48610;52.144;8.624;2022-12-07T04:32:01;15.20;;;7.28;;
62554;SDS011;48610;52.144;8.624;2022-12-07T04:35:02;16.95;;;7.80;;
62554;SDS011;48610;52.144;8.624;2022-12-07T04:38:03;19.75;;;7.70;;
62554;SDS011;48610;52.144;8.624;2022-12-07T04:41:05;20.27;;;7.53;;
62554;SDS011;48610;52.144;8.624;2022-12-07T04:44:06;20.50;;;6.18;;
62554;SDS011;48610;52.144;8.624;2022-12-07T04:47:07;17.30;;;6.40;;
62554;SDS011;48610;52.144;8.624;2022-12-07T04:50:09;13.60;;;6.50;;
62554;SDS011;48610;52.144;8.624;2022-12-07T04:53:10;15.23;;;7.00;;
62554;SDS011;48610;52.144;8.624;2022-12-07T04:56:10;15.40;;;6.43;;
62554;SDS011;48610;52.144;8.624;2022-12-07T04:59:11;19.92;;;8.05;;
62554;SDS011;48610;52.144;8.624;2022-12-07T05:02:13;14.55;;;5.78;;
62554;SDS011;48610;52.144;8.624;2022-12-07T05:05:14;13.80;;;6.40;;
62554;SDS011;48610;52.144;8.624;2022-12-07T05:08:15;12.35;;;6.65;;
62554;SDS011;48610;52.144;8.624;2022-12-07T05:11:15;10.75;;;6.03;;
62554;SDS011;48610;52.144;8.624;2022-12-07T05:14:35;17.45;;;6.30;;
62554;SDS011;48610;52.144;8.624;2022-12-07T05:17:35;16.33;;;6.60;;
62554;SDS011;48610;52.144;8.624;2022-12-07T05:20:36;13.02;;;6.05;;
62554;SDS011;48610;52.144;8.624;2022-12-07T05:23:37;16.63;;;6.45;;
62554;SDS011;48610;52.144;8.624;2022-12-07T05:26:37;18.50;;;6.50;;
62554;SDS011;48610;52.144;8.624;2022-12-07T05:29:38;14.23;;;5.97;;
62554;SDS011;48610;52.144;8.624;2022-12-07T05:32:38;13.20;;;5.85;;
62554;SDS011;48610;52.144;8.624;2022-12-07T05:35:39;12.57;;;5.68;;
62554;SDS011;48610;52.144;8.624;2022-12-07T05:38:40;15.48;;;6.15;;
62554;SDS011;48610;52.144;8.624;2022-12-07T05:41:41;16.25;;;5.57;;
62554;SDS011;48610;52.144;8.624;2022-12-07T05:45:00;16.30;;;5.60;;
62554;SDS011;48610;52.144;8.624;2022-12-07T05:48:01;14.80;;;5.47;;
62554;SDS011;48610;52.144;8.624;2022-12-07T05:51:02;15.00;;;5.25;;
62554;SDS011;48610;52.144;8.624;2022-12-07T05:54:02;10.38;;;5.22;;
62554;SDS011;48610;52.144;8.624;2022-12-07T05:57:03;14.50;;;6.65;;
62554;SDS011;48610;52.144;8.624;2022-12-07T06:00:04;14.70;;;5.75;;
62554;SDS011;48610;52.144;8.624;2022-12-07T06:03:05;16.40;;;6.18;;
62554;SDS011;48610;52.144;8.624;2022-12-07T06:06:06;9.38;;;3.70;;
62554;SDS011;48610;52.144;8.624;2022-12-07T06:09:07;11.18;;;4.80;;
62554;SDS011;48610;52.144;8.624;2022-12-07T06:12:09;8.75;;;5.07;;
62554;SDS011;48610;52.144;8.624;2022-12-07T06:15:29;13.38;;;5.35;;
62554;SDS011;48610;52.144;8.624;2022-12-07T06:18:30;8.18;;;4.45;;
62554;SDS011;48610;52.144;8.624;2022-12-07T06:21:30;12.85;;;4.93;;
62554;SDS011;48610;52.144;8.624;2022-12-07T06:24:31;11.35;;;4.57;;
62554;SDS011;48610;52.144;8.624;2022-12-07T06:27:32;17.65;;;5.28;;
62554;SDS011;48610;52.144;8.624;2022-12-07T06:30:33;16.10;;;5.57;;
62554;SDS011;48610;52.144;8.624;2022-12-07T06:33:34;16.73;;;5.55;;
62554;SDS011;48610;52.144;8.624;2022-12-07T06:36:34;16.50;;;6.40;;
62554;SDS011;48610;52.144;8.624;2022-12-07T06:39:35;13.25;;;7.43;;
62554;SDS011;48610;52.144;8.624;2022-12-07T06:42:36;13.50;;;6.07;;
62554;SDS011;48610;52.144;8.624;2022-12-07T06:45:36;18.98;;;6.65;;
62554;SDS011;48610;52.144;8.624;2022-12-07T06:48:37;11.32;;;5.35;;
62554;SDS011;48610;52.144;8.624;2022-12-07T06:51:37;13.65;;;5.55;;
62554;SDS011;48610;52.144;8.624;2022-12-07T06:54:41;11.52;;;4.95;;
62554;SDS011;48610;52.144;8.624;2022-12-07T06:57:41;15.30;;;5.20;;
62554;SDS011;48610;52.144;8.624;2022-12-07T07:00:42;12.35;;;5.68;;
62554;SDS011;48610;52.144;8.624;2022-12-07T07:03:44;15.23;;;5.60;;
62554;SDS011;48610;52.144;8.624;2022-12-07T07:06:45;15.57;;;6.50;;
62554;SDS011;48610;52.144;8.624;2022-12-07T07:09:47;18.63;;;7.75;;
62554;SDS011;48610;52.144;8.624;2022-12-07T07:12:47;15.90;;;6.32;;
62554;SDS011;48610;52.144;8.624;2022-12-07T07:15:48;12.38;;;5.10;;
62554;SDS011;48610;52.144;8.624;2022-12-07T07:18:48;15.30;;;5.22;;
62554;SDS011;48610;52.144;8.624;2022-12-07T07:21:49;12.23;;;6.13;;
62554;SDS011;48610;52.144;8.624;2022-12-07T07:24:50;20.80;;;6.03;;
62554;SDS011;48610;52.144;8.624;2022-12-07T07:27:50;15.18;;;6.40;;
62554;SDS011;48610;52.144;8.624;2022-12-07T07:30:51;15.63;;;6.22;;
62554;SDS011;48610;52.144;8.624;2022-12-07T07:33:51;14.15;;;6.05;;
62554;SDS011;48610;52.144;8.624;2022-12-07T07:36:52;25.13;;;7.63;;
62554;SDS011;48610;52.144;8.624;2022-12-07T07:39:53;26.30;;;7.55;;
62554;SDS011;48610;52.144;8.624;2022-12-07T07:42:53;25.80;;;8.65;;
62554;SDS011;48610;52.144;8.624;2022-12-07T07:45:55;17.20;;;6.35;;
62554;SDS011;48610;52.144;8.624;2022-12-07T07:48:55;24.58;;;7.07;;
62554;SDS011;48610;52.144;8.624;2022-12-07T07:51:56;21.02;;;7.03;;
62554;SDS011;48610;52.144;8.624;2022-12-07T07:54:57;28.58;;;8.20;;
62554;SDS011;48610;52.144;8.624;2022-12-07T07:57:57;22.25;;;7.90;;
62554;SDS011;48610;52.144;8.624;2022-12-07T08:01:03;15.25;;;6.28;;
62554;SDS011;48610;52.144;8.624;2022-12-07T08:04:04;19.35;;;6.28;;
62554;SDS011;48610;52.144;8.624;2022-12-07T08:07:05;21.52;;;6.60;;
62554;SDS011;48610;52.144;8.624;2022-12-07T08:10:06;17.17;;;5.82;;
62554;SDS011;48610;52.144;8.624;2022-12-07T08:13:07;17.80;;;7.80;;
62554;SDS011;48610;52.144;8.624;2022-12-07T08:16:11;10.75;;;4.40;;
62554;SDS011;48610;52.144;8.624;2022-12-07T08:19:11;13.93;;;6.00;;
62554;SDS011;48610;52.144;8.624;2022-12-07T08:22:13;11.48;;;5.03;;
62554;SDS011;48610;52.144;8.624;2022-12-07T08:25:14;14.18;;;4.97;;
62554;SDS011;48610;52.144;8.624;2022-12-07T08:28:15;9.23;;;4.40;;
62554;SDS011;48610;52.144;8.624;2022-12-07T08:31:16;11.93;;;4.90;;
62554;SDS011;48610;52.144;8.624;2022-12-07T08:34:18;12.02;;;4.57;;
62554;SDS011;48610;52.144;8.624;2022-12-07T08:37:19;14.98;;;5.03;;
62554;SDS011;48610;52.144;8.624;2022-12-07T08:40:20;14.45;;;5.20;;
62554;SDS011;48610;52.144;8.624;2022-12-07T08:43:21;14.73;;;4.50;;
62554;SDS011;48610;52.144;8.624;2022-12-07T08:46:26;11.27;;;4.22;;
62554;SDS011;48610;52.144;8.624;2022-12-07T08:49:40;21.98;;;9.35;;
62554;SDS011;48610;52.144;8.624;2022-12-07T08:52:48;24.08;;;8.38;;
62554;SDS011;48610;52.144;8.624;2022-12-07T08:55:52;14.38;;;6.45;;
62554;SDS011;48610;52.144;8.624;2022-12-07T08:58:53;64.38;;;20.83;;
62554;SDS011;48610;52.144;8.624;2022-12-07T09:01:53;28.30;;;9.38;;
62554;SDS011;48610;52.144;8.624;2022-12-07T09:04:54;19.10;;;5.72;;
62554;SDS011;48610;52.144;8.624;2022-12-07T09:07:55;14.88;;;5.75;;
62554;SDS011;48610;52.144;8.624;2022-12-07T09:11:00;28.73;;;6.57;;
62554;SDS011;48610;52.144;8.624;2022-12-07T09:14:00;21.80;;;5.85;;
62554;SDS011;48610;52.144;8.624;2022-12-07T09:17:05;25.40;;;8.35;;
62554;SDS011;48610;52.144;8.624;2022-12-07T09:20:07;22.00;;;8.90;;
62554;SDS011;48610;52.144;8.624;2022-12-07T09:23:08;19.27;;;6.57;;
62554;SDS011;48610;52.144;8.624;2022-12-07T09:26:08;23.73;;;8.95;;
62554;SDS011;48610;52.144;8.624;2022-12-07T09:29:09;16.88;;;5.72;;
62554;SDS011;48610;52.144;8.624;2022-12-07T09:32:10;16.98;;;4.43;;
62554;SDS011;48610;52.144;8.624;2022-12-07T09:35:11;16.25;;;4.32;;
62554;SDS011;48610;52.144;8.624;2022-12-07T09:38:11;11.10;;;4.03;;
62554;SDS011;48610;52.144;8.624;2022-12-07T09:41:12;8.82;;;4.05;;
62554;SDS011;48610;52.144;8.624;2022-12-07T09:44:16;10.98;;;3.67;;
62554;SDS011;48610;52.144;8.624;2022-12-07T09:47:21;9.60;;;4.03;;
62554;SDS011;48610;52.144;8.624;2022-12-07T09:50:23;9.27;;;3.60;;
62554;SDS011;48610;52.144;8.624;2022-12-07T09:53:27;12.65;;;3.40;;
62554;SDS011;48610;52.144;8.624;2022-12-07T09:56:32;8.73;;;2.97;;
62554;SDS011;48610;52.144;8.624;2022-12-07T09:59:33;8.15;;;3.20;;
62554;SDS011;48610;52.144;8.624;2022-12-07T10:02:35;12.73;;;3.75;;
62554;SDS011;48610;52.144;8.624;2022-12-07T10:05:40;8.57;;;3.33;;
62554;SDS011;48610;52.144;8.624;2022-12-07T10:08:44;11.25;;;3.80;;
62554;SDS011;48610;52.144;8.624;2022-12-07T10:11:58;7.22;;;3.03;;
62554;SDS011;48610;52.144;8.624;2022-12-07T10:15:02;15.07;;;3.50;;
62554;SDS011;48610;52.144;8.624;2022-12-07T10:18:13;7.15;;;3.75;;
62554;SDS011;48610;52.144;8.624;2022-12-07T10:21:36;9.68;;;4.18;;
62554;SDS011;48610;52.144;8.624;2022-12-07T10:24:37;13.27;;;3.90;;
62554;SDS011;48610;52.144;8.624;2022-12-07T10:27:57;14.18;;;3.50;;
62554;SDS011;48610;52.144;8.624;2022-12-07T10:31:17;15.15;;;4.28;;
62554;SDS011;48610;52.144;8.624;2022-12-07T10:34:24;12.15;;;3.70;;
62554;SDS011;48610;52.144;8.624;2022-12-07T10:37:26;9.27;;;3.67;;
62554;SDS011;48610;52.144;8.624;2022-12-07T10:40:32;13.55;;;4.55;;
62554;SDS011;48610;52.144;8.624;2022-12-07T10:43:36;18.52;;;6.18;;
62554;SDS011;48610;52.144;8.624;2022-12-07T11:01:04;4.47;;;2.42;;
62554;SDS011;48610;52.144;8.624;2022-12-07T11:07:38;8.68;;;3.40;;
62554;SDS011;48610;52.144;8.624;2022-12-07T11:11:01;10.20;;;3.15;;
62554;SDS011;48610;52.144;8.624;2022-12-07T11:14:25;15.95;;;4.07;;
62554;SDS011;48610;52.144;8.624;2022-12-07T11:17:49;12.52;;;3.40;;
62554;SDS011;48610;52.144;8.624;2022-12-07T11:24:28;8.23;;;2.50;;
62554;SDS011;48610;52.144;8.624;2022-12-07T11:31:53;10.02;;;3.47;;
62554;SDS011;48610;52.144;8.624;2022-12-07T11:38:10;8.88;;;3.15;;
62554;SDS011;48610;52.144;8.624;2022-12-07T11:41:15;7.88;;;3.17;;
62554;SDS011;48610;52.144;8.624;2022-12-07T11:51:02;4.90;;;2.60;;
62554;SDS011;48610;52.144;8.624;2022-12-07T11:54:15;5.28;;;2.90;;
62554;SDS011;48610;52.144;8.624;2022-12-07T11:57:25;8.90;;;3.17;;
62554;SDS011;48610;52.144;8.624;2022-12-07T12:00:36;11.88;;;2.95;;
62554;SDS011;48610;52.144;8.624;2022-12-07T12:07:02;3.80;;;2.25;;
62554;SDS011;48610;52.144;8.624;2022-12-07T12:10:06;15.55;;;3.80;;
62554;SDS011;48610;52.144;8.624;2022-12-07T12:20:04;10.40;;;3.05;;
62554;SDS011;48610;52.144;8.624;2022-12-07T12:23:20;9.20;;;3.67;;
62554;SDS011;48610;52.144;8.624;2022-12-07T12:26:25;9.95;;;5.15;;
62554;SDS011;48610;52.144;8.624;2022-12-07T12:29:33;14.83;;;4.17;;
62554;SDS011;48610;52.144;8.624;2022-12-07T12:35:40;8.43;;;3.10;;
62554;SDS011;48610;52.144;8.624;2022-12-07T12:38:52;6.35;;;2.92;;
62554;SDS011;48610;52.144;8.624;2022-12-07T12:42:20;11.95;;;4.65;;
62554;SDS011;48610;52.144;8.624;2022-12-07T12:45:21;13.20;;;3.92;;
62554;SDS011;48610;52.144;8.624;2022-12-07T12:48:28;6.28;;;3.13;;
62554;SDS011;48610;52.144;8.624;2022-12-07T12:51:39;10.40;;;2.70;;
62554;SDS011;48610;52.144;8.624;2022-12-07T13:08:05;22.48;;;4.47;;
62554;SDS011;48610;52.144;8.624;2022-12-07T13:11:28;5.50;;;2.42;;
62554;SDS011;48610;52.144;8.624;2022-12-07T13:14:35;10.98;;;3.03;;
62554;SDS011;48610;52.144;8.624;2022-12-07T13:17:55;11.55;;;3.15;;
62554;SDS011;48610;52.144;8.624;2022-12-07T13:23:59;11.20;;;3.50;;
62554;SDS011;48610;52.144;8.624;2022-12-07T13:27:00;19.63;;;4.15;;
62554;SDS011;48610;52.144;8.624;2022-12-07T13:30:01;9.75;;;3.45;;
62554;SDS011;48610;52.144;8.624;2022-12-07T13:33:08;16.00;;;4.00;;
62554;SDS011;48610;52.144;8.624;2022-12-07T13:36:16;14.13;;;4.00;;
62554;SDS011;48610;52.144;8.624;2022-12-07T13:39:23;9.02;;;3.70;;
62554;SDS011;48610;52.144;8.624;2022-12-07T13:45:28;10.20;;;3.88;;
62554;SDS011;48610;52.144;8.624;2022-12-07T13:48:49;13.30;;;3.92;;
62554;SDS011;48610;52.144;8.624;2022-12-07T13:51:51;12.55;;;2.90;;
62554;SDS011;48610;52.144;8.624;2022-12-07T13:54:56;12.80;;;3.28;;
62554;SDS011;48610;52.144;8.624;2022-12-07T13:57:57;8.13;;;2.95;;
62554;SDS011;48610;52.144;8.624;2022-12-07T14:00:59;7.68;;;3.50;;
62554;SDS011;48610;52.144;8.624;2022-12-07T14:07:31;9.23;;;2.80;;
62554;SDS011;48610;52.144;8.624;2022-12-07T14:10:35;14.38;;;3.72;;
62554;SDS011;48610;52.144;8.624;2022-12-07T14:16:55;8.27;;;3.50;;
62554;SDS011;48610;52.144;8.624;2022-12-07T14:20:02;12.77;;;4.65;;
62554;SDS011;48610;52.144;8.624;2022-12-07T14:23:06;11.25;;;4.25;;
62554;SDS011;48610;52.144;8.624;2022-12-07T14:26:24;29.42;;;4.80;;
62554;SDS011;48610;52.144;8.624;2022-12-07T14:32:27;10.07;;;4.00;;
62554;SDS011;48610;52.144;8.624;2022-12-07T14:35:29;10.07;;;4.45;;
62554;SDS011;48610;52.144;8.624;2022-12-07T14:38:30;13.00;;;5.03;;
62554;SDS011;48610;52.144;8.624;2022-12-07T14:41:31;11.75;;;4.53;;
62554;SDS011;48610;52.144;8.624;2022-12-07T14:44:50;7.97;;;3.85;;
62554;SDS011;48610;52.144;8.624;2022-12-07T14:47:51;12.45;;;4.03;;
62554;SDS011;48610;52.144;8.624;2022-12-07T14:50:52;15.32;;;4.05;;
62554;SDS011;48610;52.144;8.624;2022-12-07T14:53:53;18.80;;;8.60;;
62554;SDS011;48610;52.144;8.624;2022-12-07T14:56:54;14.57;;;4.60;;
62554;SDS011;48610;52.144;8.624;2022-12-07T14:59:54;16.95;;;6.40;;
62554;SDS011;48610;52.144;8.624;2022-12-07T15:02:55;23.92;;;7.50;;
62554;SDS011;48610;52.144;8.624;2022-12-07T15:05:56;14.45;;;5.00;;
62554;SDS011;48610;52.144;8.624;2022-12-07T15:08:57;21.88;;;5.03;;
62554;SDS011;48610;52.144;8.624;2022-12-07T15:11:58;10.77;;;3.35;;
62554;SDS011;48610;52.144;8.624;2022-12-07T15:14:58;9.50;;;3.60;;
62554;SDS011;48610;52.144;8.624;2022-12-07T15:18:01;11.60;;;3.47;;
62554;SDS011;48610;52.144;8.624;2022-12-07T15:21:01;9.25;;;3.30;;
62554;SDS011;48610;52.144;8.624;2022-12-07T15:24:02;14.90;;;4.32;;
62554;SDS011;48610;52.144;8.624;2022-12-07T15:27:03;15.60;;;4.40;;
62554;SDS011;48610;52.144;8.624;2022-12-07T15:30:04;14.85;;;6.40;;
62554;SDS011;48610;52.144;8.624;2022-12-07T15:33:05;14.82;;;5.30;;
62554;SDS011;48610;52.144;8.624;2022-12-07T15:36:06;15.98;;;7.25;;
62554;SDS011;48610;52.144;8.624;2022-12-07T15:39:08;14.35;;;6.13;;
62554;SDS011;48610;52.144;8.624;2022-12-07T15:42:08;16.65;;;6.05;;
62554;SDS011;48610;52.144;8.624;2022-12-07T15:45:09;15.85;;;6.10;;
62554;SDS011;48610;52.144;8.624;2022-12-07T15:48:10;29.52;;;14.63;;
62554;SDS011;48610;52.144;8.624;2022-12-07T15:51:12;21.75;;;11.30;;
62554;SDS011;48610;52.144;8.624;2022-12-07T15:54:19;14.15;;;5.43;;
62554;SDS011;48610;52.144;8.624;2022-12-07T15:57:20;24.20;;;10.80;;
62554;SDS011;48610;52.144;8.624;2022-12-07T16:00:21;6.80;;;4.47;;
62554;SDS011;48610;52.144;8.624;2022-12-07T16:03:21;12.75;;;6.60;;
62554;SDS011;48610;52.144;8.624;2022-12-07T16:06:22;21.60;;;9.23;;
62554;SDS011;48610;52.144;8.624;2022-12-07T16:09:22;29.73;;;15.45;;
62554;SDS011;48610;52.144;8.624;2022-12-07T16:12:23;8.43;;;4.03;;
62554;SDS011;48610;52.144;8.624;2022-12-07T16:15:25;24.95;;;11.00;;
62554;SDS011;48610;52.144;8.624;2022-12-07T16:18:26;12.20;;;5.57;;
62554;SDS011;48610;52.144;8.624;2022-12-07T16:21:27;38.72;;;17.10;;
62554;SDS011;48610;52.144;8.624;2022-12-07T16:24:27;9.38;;;5.28;;
62554;SDS011;48610;52.144;8.624;2022-12-07T16:27:28;10.32;;;5.22;;
62554;SDS011;48610;52.144;8.624;2022-12-07T16:30:29;16.85;;;7.88;;
62554;SDS011;48610;52.144;8.624;2022-12-07T16:33:29;68.68;;;35.20;;
62554;SDS011;48610;52.144;8.624;2022-12-07T16:36:30;17.58;;;8.20;;
62554;SDS011;48610;52.144;8.624;2022-12-07T16:39:31;12.48;;;4.70;;
62554;SDS011;48610;52.144;8.624;2022-12-07T16:42:33;36.78;;;23.77;;
62554;SDS011;48610;52.144;8.624;2022-12-07T16:45:36;10.13;;;5.70;;
62554;SDS011;48610;52.144;8.624;2022-12-07T16:48:37;12.93;;;9.10;;
62554;SDS011;48610;52.144;8.624;2022-12-07T16:51:39;28.02;;;15.73;;
62554;SDS011;48610;52.144;8.624;2022-12-07T16:54:42;12.50;;;5.90;;
62554;SDS011;48610;52.144;8.624;2022-12-07T16:57:43;8.70;;;5.38;;
62554;SDS011;48610;52.144;8.624;2022-12-07T17:00:44;17.23;;;8.20;;
62554;SDS011;48610;52.144;8.624;2022-12-07T17:03:45;14.73;;;7.20;;
62554;SDS011;48610;52.144;8.624;2022-12-07T17:06:46;14.02;;;8.32;;
62554;SDS011;48610;52.144;8.624;2022-12-07T17:09:47;9.55;;;4.75;;
62554;SDS011;48610;52.144;8.624;2022-12-07T17:12:47;7.15;;;3.67;;
62554;SDS011;48610;52.144;8.624;2022-12-07T17:15:58;7.70;;;4.25;;
62554;SDS011;48610;52.144;8.624;2022-12-07T17:19:04;5.35;;;3.55;;
62554;SDS011;48610;52.144;8.624;2022-12-07T17:22:09;16.85;;;5.15;;
62554;SDS011;48610;52.144;8.624;2022-12-07T17:25:12;12.95;;;7.00;;
62554;SDS011;48610;52.144;8.624;2022-12-07T17:28:13;15.88;;;4.25;;
62554;SDS011;48610;52.144;8.624;2022-12-07T17:31:15;13.85;;;4.85;;
62554;SDS011;48610;52.144;8.624;2022-12-07T17:34:17;17.83;;;8.27;;
62554;SDS011;48610;52.144;8.624;2022-12-07T17:37:18;12.50;;;6.53;;
62554;SDS011;48610;52.144;8.624;2022-12-07T17:40:18;34.25;;;13.70;;
62554;SDS011;48610;52.144;8.624;2022-12-07T17:43:19;49.25;;;15.15;;
62554;SDS011;48610;52.144;8.624;2022-12-07T17:46:20;77.50;;;27.75;;
62554;SDS011;48610;52.144;8.624;2022-12-07T17:49:20;34.53;;;15.00;;
62554;SDS011;48610;52.144;8.624;2022-12-07T17:52:21;13.95;;;7.28;;
62554;SDS011;48610;52.144;8.624;2022-12-07T17:55:40;9.82;;;4.82;;
62554;SDS011;48610;52.144;8.624;2022-12-07T17:58:41;14.30;;;5.28;;
62554;SDS011;48610;52.144;8.624;2022-12-07T18:01:42;14.85;;;4.97;;
62554;SDS011;48610;52.144;8.624;2022-12-07T18:04:43;9.40;;;4.00;;
62554;SDS011;48610;52.144;8.624;2022-12-07T18:07:44;11.43;;;4.10;;
62554;SDS011;48610;52.144;8.624;2022-12-07T18:10:45;15.20;;;4.07;;
62554;SDS011;48610;52.144;8.624;2022-12-07T18:13:45;18.10;;;7.72;;
62554;SDS011;48610;52.144;8.624;2022-12-07T18:16:46;6.97;;;3.83;;
62554;SDS011;48610;52.144;8.624;2022-12-07T18:19:48;10.27;;;3.63;;
62554;SDS011;48610;52.144;8.624;2022-12-07T18:22:49;11.50;;;5.05;;
62554;SDS011;48610;52.144;8.624;2022-12-07T18:25:49;6.40;;;3.65;;
62554;SDS011;48610;52.144;8.624;2022-12-07T18:28:50;9.23;;;3.83;;
62554;SDS011;48610;52.144;8.624;2022-12-07T18:31:51;9.88;;;4.43;;
62554;SDS011;48610;52.144;8.624;2022-12-07T18:34:52;12.88;;;4.03;;
62554;SDS011;48610;52.144;8.624;2022-12-07T18:37:53;4.78;;;3.40;;
62554;SDS011;48610;52.144;8.624;2022-12-07T18:40:53;6.85;;;4.40;;
62554;SDS011;48610;52.144;8.624;2022-12-07T18:43:54;6.38;;;4.22;;
62554;SDS011;48610;52.144;8.624;2022-12-07T18:46:55;9.75;;;4.38;;
62554;SDS011;48610;52.144;8.624;2022-12-07T18:49:55;12.02;;;4.15;;
62554;SDS011;48610;52.144;8.624;2022-12-07T18:52:59;17.67;;;4.53;;
62554;SDS011;48610;52.144;8.624;2022-12-07T18:59:04;10.35;;;4.03;;
62554;SDS011;48610;52.144;8.624;2022-12-07T19:02:23;7.32;;;3.78;;
62554;SDS011;48610;52.144;8.624;2022-12-07T19:05:24;8.07;;;3.50;;
62554;SDS011;48610;52.144;8.624;2022-12-07T19:08:25;7.07;;;4.47;;
62554;SDS011;48610;52.144;8.624;2022-12-07T19:11:27;14.13;;;4.88;;
62554;SDS011;48610;52.144;8.624;2022-12-07T19:14:48;6.18;;;3.92;;
62554;SDS011;48610;52.144;8.624;2022-12-07T19:17:49;13.98;;;6.18;;
62554;SDS011;48610;52.144;8.624;2022-12-07T19:20:49;10.23;;;5.28;;
62554;SDS011;48610;52.144;8.624;2022-12-07T19:23:50;11.30;;;5.07;;
62554;SDS011;48610;52.144;8.624;2022-12-07T19:26:51;10.55;;;5.68;;
62554;SDS011;48610;52.144;8.624;2022-12-07T19:29:51;11.00;;;5.75;;
62554;SDS011;48610;52.144;8.624;2022-12-07T19:32:52;11.85;;;5.13;;
62554;SDS011;48610;52.144;8.624;2022-12-07T19:35:53;7.53;;;4.38;;
62554;SDS011;48610;52.144;8.624;2022-12-07T19:38:53;11.27;;;5.22;;
62554;SDS011;48610;52.144;8.624;2022-12-07T19:41:54;10.52;;;4.70;;
62554;SDS011;48610;52.144;8.624;2022-12-07T19:44:55;12.60;;;5.47;;
62554;SDS011;48610;52.144;8.624;2022-12-07T19:47:56;9.77;;;4.70;;
62554;SDS011;48610;52.144;8.624;2022-12-07T19:51:03;14.93;;;6.90;;
62554;SDS011;48610;52.144;8.624;2022-12-07T19:54:04;11.75;;;6.07;;
62554;SDS011;48610;52.144;8.624;2022-12-07T19:57:05;17.40;;;6.50;;
62554;SDS011;48610;52.144;8.624;2022-12-07T20:00:06;13.88;;;5.30;;
62554;SDS011;48610;52.144;8.624;2022-12-07T20:03:07;10.10;;;5.88;;